ARG1698 SAWC-SAZS
Flight info
| Callsign | ARG1698 |
|---|---|
| Flight time | 1h 23m |
| Altitude | 37000 |
| Route | OGTUR1C OGTUR UT110 DALDU UT659 DAKAX UT658 ESQ UW44 TORES TORES1N |
| Aircraft | B738/M-SDE2E3FGHIRWXY/LB1 |
Departure
| Time | 2026-04-28 20:42 |
|---|---|
| Airport | El Calafate - Commander Armando Tola International Airport (SAWC) |
Arrival
| Time | 2026-04-28 22:06 |
|---|---|
| Airport | Teniente Luis Candelaria International Airport (SAZS) |
| Time | Latitude | Longitude | Altitude | Speed | Heading |
|---|---|---|---|---|---|
| 2026-04-28 20:20 | -50.28331 | -72.05458 | 642 ft | 0 kts | 175° |
| 2026-04-28 20:29 | -50.28318 | -72.05461 | 642 ft | 3 kts | 159° |
| 2026-04-28 20:29 | -50.28302 | -72.05476 | 642 ft | 3 kts | 124° |
| 2026-04-28 20:30 | -50.28292 | -72.05503 | 642 ft | 2 kts | 119° |
| 2026-04-28 20:30 | -50.28289 | -72.05511 | 642 ft | 0 kts | 119° |
| 2026-04-28 20:37 | -50.28290 | -72.05510 | 642 ft | 1 kts | 119° |
| 2026-04-28 20:37 | -50.28296 | -72.05463 | 644 ft | 7 kts | 82° |
| 2026-04-28 20:37 | -50.28253 | -72.05407 | 642 ft | 10 kts | 12° |
| 2026-04-28 20:38 | -50.28177 | -72.05409 | 642 ft | 12 kts | 356° |
| 2026-04-28 20:38 | -50.28091 | -72.05419 | 643 ft | 13 kts | 357° |
| 2026-04-28 20:38 | -50.28021 | -72.05356 | 644 ft | 13 kts | 73° |
| 2026-04-28 20:38 | -50.28013 | -72.05213 | 643 ft | 14 kts | 85° |
| 2026-04-28 20:39 | -50.28004 | -72.05059 | 643 ft | 15 kts | 84° |
| 2026-04-28 20:39 | -50.27994 | -72.04903 | 645 ft | 14 kts | 84° |
| 2026-04-28 20:39 | -50.27984 | -72.04740 | 644 ft | 16 kts | 84° |
| 2026-04-28 20:39 | -50.27973 | -72.04560 | 644 ft | 17 kts | 85° |
| 2026-04-28 20:40 | -50.27961 | -72.04364 | 643 ft | 19 kts | 84° |
| 2026-04-28 20:40 | -50.27947 | -72.04149 | 641 ft | 21 kts | 84° |
| 2026-04-28 20:40 | -50.27931 | -72.03920 | 640 ft | 22 kts | 84° |
| 2026-04-28 20:40 | -50.27934 | -72.03733 | 641 ft | 12 kts | 111° |
| 2026-04-28 20:41 | -50.27963 | -72.03619 | 642 ft | 10 kts | 96° |
| 2026-04-28 20:41 | -50.27943 | -72.03567 | 642 ft | 6 kts | 17° |
| 2026-04-28 20:41 | -50.27920 | -72.03591 | 642 ft | 4 kts | 287° |
| 2026-04-28 20:41 | -50.27922 | -72.03655 | 642 ft | 17 kts | 266° |
| 2026-04-28 20:42 | -50.27951 | -72.04157 | 641 ft | 77 kts | 264° |
| 2026-04-28 20:42 | -50.28019 | -72.05299 | 643 ft | 133 kts | 265° |
| 2026-04-28 20:42 | -50.28110 | -72.06926 | 929 ft | 160 kts | 265° |
| 2026-04-28 20:42 | -50.28208 | -72.08722 | 1587 ft | 173 kts | 265° |
| 2026-04-28 20:43 | -50.28309 | -72.10701 | 2133 ft | 194 kts | 263° |
| 2026-04-28 20:43 | -50.28452 | -72.12936 | 2537 ft | 222 kts | 264° |
| 2026-04-28 20:43 | -50.28615 | -72.15512 | 2855 ft | 254 kts | 264° |
| 2026-04-28 20:43 | -50.28788 | -72.18301 | 3678 ft | 258 kts | 265° |
| 2026-04-28 20:44 | -50.28955 | -72.21071 | 4811 ft | 256 kts | 265° |
| 2026-04-28 20:44 | -50.28795 | -72.23826 | 5760 ft | 259 kts | 286° |
| 2026-04-28 20:44 | -50.27847 | -72.26219 | 6650 ft | 267 kts | 313° |
| 2026-04-28 20:44 | -50.26207 | -72.27636 | 7534 ft | 278 kts | 338° |
| 2026-04-28 20:45 | -50.24321 | -72.28392 | 8363 ft | 284 kts | 342° |
| 2026-04-28 20:45 | -50.22358 | -72.28991 | 9120 ft | 291 kts | 343° |
| 2026-04-28 20:45 | -50.20354 | -72.29575 | 9816 ft | 295 kts | 343° |
| 2026-04-28 20:45 | -50.18292 | -72.29930 | 10511 ft | 305 kts | 356° |
| 2026-04-28 20:46 | -50.16158 | -72.29416 | 11135 ft | 319 kts | 11° |
| 2026-04-28 20:46 | -50.13986 | -72.28409 | 11604 ft | 334 kts | 13° |
| 2026-04-28 20:46 | -50.11736 | -72.27244 | 11990 ft | 349 kts | 15° |
| 2026-04-28 20:46 | -50.09396 | -72.25994 | 12366 ft | 364 kts | 15° |
| 2026-04-28 20:47 | -50.06959 | -72.24719 | 12821 ft | 375 kts | 14° |
| 2026-04-28 20:47 | -50.04463 | -72.23454 | 13442 ft | 380 kts | 14° |
| 2026-04-28 20:47 | -50.01946 | -72.22198 | 14111 ft | 382 kts | 14° |
| 2026-04-28 20:47 | -49.99413 | -72.20932 | 14794 ft | 385 kts | 15° |
| 2026-04-28 20:48 | -49.96864 | -72.19650 | 15441 ft | 387 kts | 15° |
| 2026-04-28 20:48 | -49.94294 | -72.18352 | 16065 ft | 391 kts | 15° |
| 2026-04-28 20:48 | -49.91700 | -72.17045 | 16669 ft | 395 kts | 15° |
| 2026-04-28 20:48 | -49.89080 | -72.15727 | 17281 ft | 398 kts | 15° |
| 2026-04-28 20:49 | -49.86436 | -72.14401 | 17859 ft | 403 kts | 15° |
| 2026-04-28 20:49 | -49.83764 | -72.13072 | 18397 ft | 405 kts | 15° |
| 2026-04-28 20:49 | -49.81081 | -72.11732 | 18953 ft | 407 kts | 15° |
| 2026-04-28 20:49 | -49.78379 | -72.10375 | 19474 ft | 411 kts | 15° |
| 2026-04-28 20:50 | -49.75653 | -72.09008 | 19979 ft | 415 kts | 15° |
| 2026-04-28 20:50 | -49.72899 | -72.07637 | 20487 ft | 418 kts | 15° |
| 2026-04-28 20:50 | -49.70125 | -72.06258 | 21001 ft | 421 kts | 15° |
| 2026-04-28 20:50 | -49.67330 | -72.04868 | 21478 ft | 425 kts | 15° |
| 2026-04-28 20:51 | -49.64512 | -72.03466 | 21970 ft | 428 kts | 14° |
| 2026-04-28 20:51 | -49.61672 | -72.02056 | 22444 ft | 431 kts | 14° |
| 2026-04-28 20:51 | -49.58810 | -72.00636 | 22891 ft | 435 kts | 14° |
| 2026-04-28 20:51 | -49.56890 | -71.99685 | 23152 ft | 436 kts | 14° |
| 2026-04-28 20:52 | -49.53035 | -71.97778 | 23660 ft | 439 kts | 14° |
| 2026-04-28 20:52 | -49.50124 | -71.96342 | 24048 ft | 441 kts | 14° |
| 2026-04-28 20:52 | -49.47201 | -71.94901 | 24432 ft | 443 kts | 14° |
| 2026-04-28 20:52 | -49.44231 | -71.93702 | 24777 ft | 443 kts | 9° |
| 2026-04-28 20:53 | -49.38202 | -71.91646 | 25466 ft | 446 kts | 9° |
| 2026-04-28 20:53 | -49.35165 | -71.90641 | 25819 ft | 448 kts | 8° |
| 2026-04-28 20:53 | -49.32124 | -71.89633 | 26266 ft | 448 kts | 9° |
| 2026-04-28 20:54 | -49.29085 | -71.88618 | 26661 ft | 448 kts | 9° |
| 2026-04-28 20:54 | -49.26038 | -71.87597 | 27005 ft | 450 kts | 9° |
| 2026-04-28 20:54 | -49.22976 | -71.86572 | 27336 ft | 452 kts | 9° |
| 2026-04-28 20:54 | -49.19907 | -71.85542 | 27633 ft | 453 kts | 9° |
| 2026-04-28 20:55 | -49.16823 | -71.84514 | 27903 ft | 456 kts | 9° |
| 2026-04-28 20:55 | -49.13720 | -71.83487 | 28186 ft | 458 kts | 9° |
| 2026-04-28 20:55 | -49.10607 | -71.82457 | 28478 ft | 459 kts | 9° |
| 2026-04-28 20:55 | -49.07482 | -71.81422 | 28758 ft | 461 kts | 9° |
| 2026-04-28 20:56 | -49.04339 | -71.80381 | 29028 ft | 463 kts | 9° |
| 2026-04-28 20:56 | -49.01200 | -71.79342 | 29206 ft | 466 kts | 9° |
| 2026-04-28 20:56 | -48.98026 | -71.78296 | 29348 ft | 468 kts | 9° |
| 2026-04-28 20:56 | -48.94845 | -71.77245 | 29495 ft | 470 kts | 9° |
| 2026-04-28 20:57 | -48.91655 | -71.76191 | 29730 ft | 470 kts | 10° |
| 2026-04-28 20:57 | -48.88460 | -71.75139 | 29984 ft | 471 kts | 9° |
| 2026-04-28 20:57 | -48.85279 | -71.74093 | 30315 ft | 469 kts | 9° |
| 2026-04-28 20:57 | -48.82105 | -71.73073 | 30657 ft | 467 kts | 8° |
| 2026-04-28 20:58 | -48.78929 | -71.72075 | 30935 ft | 466 kts | 8° |
| 2026-04-28 20:58 | -48.75764 | -71.71083 | 31217 ft | 465 kts | 8° |
| 2026-04-28 20:58 | -48.72606 | -71.70084 | 31490 ft | 465 kts | 8° |
| 2026-04-28 20:58 | -48.69449 | -71.69076 | 31711 ft | 466 kts | 8° |
| 2026-04-28 20:59 | -48.66286 | -71.68068 | 31966 ft | 466 kts | 8° |
| 2026-04-28 20:59 | -48.63119 | -71.67062 | 32224 ft | 466 kts | 7° |
| 2026-04-28 20:59 | -48.59950 | -71.66061 | 32480 ft | 466 kts | 7° |
| 2026-04-28 20:59 | -48.56783 | -71.65062 | 32748 ft | 466 kts | 7° |
| 2026-04-28 21:00 | -48.53617 | -71.64063 | 33016 ft | 466 kts | 7° |
| 2026-04-28 21:00 | -48.50452 | -71.63065 | 33267 ft | 466 kts | 7° |
| 2026-04-28 21:00 | -48.47289 | -71.62068 | 33449 ft | 465 kts | 7° |
| 2026-04-28 21:00 | -48.44123 | -71.61073 | 33623 ft | 466 kts | 7° |
| 2026-04-28 21:01 | -48.40952 | -71.60078 | 33812 ft | 467 kts | 7° |
| 2026-04-28 21:01 | -48.37786 | -71.59086 | 34074 ft | 465 kts | 7° |
| 2026-04-28 21:01 | -48.34630 | -71.58097 | 34321 ft | 464 kts | 7° |
| 2026-04-28 21:01 | -48.31478 | -71.57110 | 34538 ft | 464 kts | 7° |
| 2026-04-28 21:02 | -48.28326 | -71.56126 | 34746 ft | 464 kts | 7° |
| 2026-04-28 21:02 | -48.25172 | -71.55144 | 34938 ft | 464 kts | 7° |
| 2026-04-28 21:02 | -48.22018 | -71.54162 | 35100 ft | 464 kts | 7° |
| 2026-04-28 21:02 | -48.18865 | -71.53180 | 35300 ft | 464 kts | 7° |
| 2026-04-28 21:03 | -48.15711 | -71.52199 | 35488 ft | 464 kts | 7° |
| 2026-04-28 21:03 | -48.12556 | -71.51219 | 35676 ft | 464 kts | 6° |
| 2026-04-28 21:03 | -48.09399 | -71.50240 | 35863 ft | 464 kts | 6° |
| 2026-04-28 21:03 | -48.06242 | -71.49264 | 36043 ft | 464 kts | 6° |
| 2026-04-28 21:04 | -48.03084 | -71.48288 | 36204 ft | 465 kts | 6° |
| 2026-04-28 21:04 | -47.99903 | -71.47376 | 36192 ft | 467 kts | 5° |
| 2026-04-28 21:04 | -47.93467 | -71.45949 | 36207 ft | 469 kts | 2° |
| 2026-04-28 21:05 | -47.87038 | -71.44500 | 36204 ft | 466 kts | 4° |
| 2026-04-28 21:05 | -47.80700 | -71.42923 | 36208 ft | 460 kts | 4° |
| 2026-04-28 21:06 | -47.74403 | -71.41451 | 36198 ft | 458 kts | 3° |
| 2026-04-28 21:06 | -47.68108 | -71.39989 | 36209 ft | 459 kts | 4° |
| 2026-04-28 21:07 | -47.61803 | -71.38494 | 36218 ft | 460 kts | 4° |
| 2026-04-28 21:07 | -47.55500 | -71.37018 | 36215 ft | 459 kts | 4° |
| 2026-04-28 21:08 | -47.49205 | -71.35550 | 36222 ft | 459 kts | 4° |
| 2026-04-28 21:08 | -47.42897 | -71.34078 | 36224 ft | 460 kts | 3° |
| 2026-04-28 21:09 | -47.36583 | -71.32608 | 36227 ft | 461 kts | 3° |
| 2026-04-28 21:09 | -47.30259 | -71.31142 | 36225 ft | 461 kts | 3° |
| 2026-04-28 21:10 | -47.23937 | -71.29678 | 36217 ft | 461 kts | 3° |
| 2026-04-28 21:10 | -47.17611 | -71.28217 | 36222 ft | 461 kts | 3° |
| 2026-04-28 21:11 | -47.11283 | -71.26759 | 36221 ft | 461 kts | 3° |
| 2026-04-28 21:11 | -47.04968 | -71.25307 | 36210 ft | 461 kts | 3° |
| 2026-04-28 21:12 | -46.98631 | -71.23857 | 36221 ft | 462 kts | 3° |
| 2026-04-28 21:12 | -46.92283 | -71.22403 | 36222 ft | 462 kts | 3° |
| 2026-04-28 21:13 | -46.85953 | -71.20957 | 36212 ft | 461 kts | 3° |
| 2026-04-28 21:13 | -46.79628 | -71.19520 | 36214 ft | 461 kts | 3° |
| 2026-04-28 21:14 | -46.73305 | -71.18084 | 36225 ft | 461 kts | 3° |
| 2026-04-28 21:14 | -46.66971 | -71.16649 | 36221 ft | 462 kts | 3° |
| 2026-04-28 21:15 | -46.60643 | -71.15218 | 36227 ft | 460 kts | 3° |
| 2026-04-28 21:15 | -46.54320 | -71.13793 | 36234 ft | 461 kts | 3° |
| 2026-04-28 21:16 | -46.47993 | -71.12370 | 36234 ft | 460 kts | 2° |
| 2026-04-28 21:16 | -46.41682 | -71.10953 | 36216 ft | 460 kts | 2° |
| 2026-04-28 21:17 | -46.35374 | -71.09542 | 36226 ft | 460 kts | 2° |
| 2026-04-28 21:17 | -46.29057 | -71.08131 | 36235 ft | 460 kts | 2° |
| 2026-04-28 21:18 | -46.22739 | -71.06721 | 36233 ft | 460 kts | 2° |
| 2026-04-28 21:18 | -46.16423 | -71.05318 | 36235 ft | 460 kts | 2° |
| 2026-04-28 21:19 | -46.10096 | -71.03916 | 36237 ft | 461 kts | 2° |
| 2026-04-28 21:19 | -46.03765 | -71.02513 | 36239 ft | 461 kts | 2° |
| 2026-04-28 21:20 | -45.97459 | -71.01120 | 36234 ft | 459 kts | 2° |
| 2026-04-28 21:20 | -45.91160 | -70.99734 | 36246 ft | 459 kts | 2° |
| 2026-04-28 21:21 | -45.84842 | -70.98346 | 36262 ft | 461 kts | 2° |
| 2026-04-28 21:21 | -45.78514 | -70.96958 | 36264 ft | 461 kts | 2° |
| 2026-04-28 21:22 | -45.72194 | -70.95575 | 36276 ft | 461 kts | 2° |
| 2026-04-28 21:22 | -45.66920 | -70.94425 | 36268 ft | 461 kts | 2° |
| 2026-04-28 21:23 | -45.59534 | -70.92815 | 36253 ft | 461 kts | 2° |
| 2026-04-28 21:23 | -45.53217 | -70.91441 | 36262 ft | 459 kts | 2° |
| 2026-04-28 21:24 | -45.46925 | -70.90078 | 36266 ft | 458 kts | 2° |
| 2026-04-28 21:24 | -45.40621 | -70.88717 | 36272 ft | 460 kts | 2° |
| 2026-04-28 21:25 | -45.34302 | -70.87352 | 36261 ft | 460 kts | 2° |
| 2026-04-28 21:25 | -45.27984 | -70.85990 | 36276 ft | 460 kts | 2° |
| 2026-04-28 21:26 | -45.21653 | -70.84632 | 36282 ft | 461 kts | 2° |
| 2026-04-28 21:26 | -45.15320 | -70.83273 | 36288 ft | 461 kts | 2° |
| 2026-04-28 21:27 | -45.08992 | -70.81920 | 36295 ft | 461 kts | 2° |
| 2026-04-28 21:27 | -45.02661 | -70.80570 | 36294 ft | 461 kts | 2° |
| 2026-04-28 21:28 | -44.96334 | -70.79221 | 36296 ft | 461 kts | 2° |
| 2026-04-28 21:28 | -44.90004 | -70.77878 | 36289 ft | 461 kts | 2° |
| 2026-04-28 21:29 | -44.83665 | -70.76536 | 36300 ft | 462 kts | 2° |
| 2026-04-28 21:29 | -44.77359 | -70.76149 | 36318 ft | 447 kts | 347° |
| 2026-04-28 21:30 | -44.71215 | -70.77225 | 36287 ft | 445 kts | 345° |
| 2026-04-28 21:30 | -44.65094 | -70.78411 | 36306 ft | 446 kts | 346° |
| 2026-04-28 21:31 | -44.58948 | -70.79540 | 36313 ft | 446 kts | 346° |
| 2026-04-28 21:31 | -44.52801 | -70.80656 | 36304 ft | 446 kts | 346° |
| 2026-04-28 21:32 | -44.46669 | -70.81791 | 36315 ft | 445 kts | 345° |
| 2026-04-28 21:32 | -44.40542 | -70.82918 | 36330 ft | 445 kts | 346° |
| 2026-04-28 21:33 | -44.34404 | -70.84037 | 36343 ft | 446 kts | 346° |
| 2026-04-28 21:33 | -44.28268 | -70.85159 | 36331 ft | 446 kts | 346° |
| 2026-04-28 21:34 | -44.22106 | -70.86284 | 36347 ft | 449 kts | 346° |
| 2026-04-28 21:34 | -44.15922 | -70.87406 | 36346 ft | 449 kts | 346° |
| 2026-04-28 21:35 | -44.09744 | -70.88525 | 36339 ft | 449 kts | 346° |
| 2026-04-28 21:35 | -44.03549 | -70.89651 | 36348 ft | 451 kts | 346° |
| 2026-04-28 21:36 | -43.97320 | -70.90776 | 36359 ft | 453 kts | 346° |
| 2026-04-28 21:36 | -43.91076 | -70.91900 | 36351 ft | 454 kts | 346° |
| 2026-04-28 21:37 | -43.84816 | -70.93028 | 36368 ft | 455 kts | 346° |
| 2026-04-28 21:37 | -43.78610 | -70.94137 | 36372 ft | 447 kts | 346° |
| 2026-04-28 21:38 | -43.72470 | -70.95240 | 36369 ft | 446 kts | 346° |
| 2026-04-28 21:38 | -43.66315 | -70.96346 | 36385 ft | 449 kts | 346° |
| 2026-04-28 21:39 | -43.60111 | -70.97450 | 36396 ft | 452 kts | 346° |
| 2026-04-28 21:39 | -43.53873 | -70.98560 | 36390 ft | 454 kts | 346° |
| 2026-04-28 21:40 | -43.47597 | -70.99677 | 36405 ft | 457 kts | 346° |
| 2026-04-28 21:40 | -43.41275 | -71.00798 | 36417 ft | 461 kts | 346° |
| 2026-04-28 21:41 | -43.34913 | -71.01923 | 36421 ft | 463 kts | 346° |
| 2026-04-28 21:41 | -43.28542 | -71.03045 | 36430 ft | 461 kts | 346° |
| 2026-04-28 21:42 | -43.22229 | -71.04156 | 36449 ft | 457 kts | 346° |
| 2026-04-28 21:42 | -43.15939 | -71.05265 | 36433 ft | 457 kts | 346° |
| 2026-04-28 21:43 | -43.09622 | -71.06376 | 36440 ft | 460 kts | 346° |
| 2026-04-28 21:43 | -43.03266 | -71.07488 | 36144 ft | 466 kts | 346° |
| 2026-04-28 21:44 | -43.00054 | -71.08050 | 35581 ft | 466 kts | 346° |
| 2026-04-28 21:44 | -42.96842 | -71.08609 | 35091 ft | 465 kts | 346° |
| 2026-04-28 21:44 | -42.93648 | -71.09163 | 34601 ft | 464 kts | 345° |
| 2026-04-28 21:44 | -42.90443 | -71.09722 | 34105 ft | 464 kts | 345° |
| 2026-04-28 21:45 | -42.87217 | -71.10087 | 33677 ft | 468 kts | 350° |
| 2026-04-28 21:45 | -42.83969 | -71.10289 | 33126 ft | 468 kts | 350° |
| 2026-04-28 21:45 | -42.80733 | -71.10469 | 32592 ft | 466 kts | 350° |
| 2026-04-28 21:45 | -42.77507 | -71.10629 | 32116 ft | 465 kts | 350° |
| 2026-04-28 21:46 | -42.74283 | -71.10786 | 31627 ft | 463 kts | 349° |
| 2026-04-28 21:46 | -42.71085 | -71.10951 | 31149 ft | 461 kts | 349° |
| 2026-04-28 21:46 | -42.67883 | -71.11125 | 30672 ft | 460 kts | 349° |
| 2026-04-28 21:46 | -42.64697 | -71.11300 | 30172 ft | 459 kts | 349° |
| 2026-04-28 21:47 | -42.61517 | -71.11470 | 29675 ft | 456 kts | 348° |
| 2026-04-28 21:47 | -42.58356 | -71.11635 | 29170 ft | 454 kts | 348° |
| 2026-04-28 21:47 | -42.55222 | -71.11796 | 28679 ft | 451 kts | 348° |
| 2026-04-28 21:47 | -42.52102 | -71.11957 | 28207 ft | 448 kts | 348° |
| 2026-04-28 21:48 | -42.48996 | -71.12121 | 27739 ft | 445 kts | 348° |
| 2026-04-28 21:48 | -42.45917 | -71.12285 | 27274 ft | 442 kts | 348° |
| 2026-04-28 21:48 | -42.42858 | -71.12446 | 26784 ft | 439 kts | 348° |
| 2026-04-28 21:48 | -42.39831 | -71.12603 | 26352 ft | 436 kts | 348° |
| 2026-04-28 21:49 | -42.36816 | -71.12757 | 25892 ft | 433 kts | 348° |
| 2026-04-28 21:49 | -42.33812 | -71.12915 | 25429 ft | 431 kts | 347° |
| 2026-04-28 21:49 | -42.30833 | -71.13075 | 24981 ft | 428 kts | 347° |
| 2026-04-28 21:49 | -42.27871 | -71.13232 | 24529 ft | 426 kts | 347° |
| 2026-04-28 21:50 | -42.24926 | -71.13385 | 24051 ft | 423 kts | 347° |
| 2026-04-28 21:50 | -42.22003 | -71.13536 | 23630 ft | 420 kts | 347° |
| 2026-04-28 21:50 | -42.19100 | -71.13686 | 23195 ft | 417 kts | 347° |
| 2026-04-28 21:50 | -42.16213 | -71.13837 | 22718 ft | 414 kts | 347° |
| 2026-04-28 21:51 | -42.13350 | -71.13987 | 22313 ft | 411 kts | 347° |
| 2026-04-28 21:51 | -42.10507 | -71.14135 | 21853 ft | 408 kts | 347° |
| 2026-04-28 21:51 | -42.07684 | -71.14282 | 21424 ft | 406 kts | 347° |
| 2026-04-28 21:51 | -42.04877 | -71.14426 | 21003 ft | 403 kts | 347° |
| 2026-04-28 21:52 | -42.02094 | -71.14568 | 20555 ft | 400 kts | 347° |
| 2026-04-28 21:52 | -41.99346 | -71.14706 | 20127 ft | 392 kts | 346° |
| 2026-04-28 21:52 | -41.96653 | -71.14841 | 19715 ft | 384 kts | 346° |
| 2026-04-28 21:52 | -41.94013 | -71.14977 | 19309 ft | 377 kts | 346° |
| 2026-04-28 21:53 | -41.91421 | -71.15114 | 18952 ft | 370 kts | 346° |
| 2026-04-28 21:53 | -41.88874 | -71.15248 | 18547 ft | 364 kts | 346° |
| 2026-04-28 21:53 | -41.86368 | -71.15378 | 18150 ft | 358 kts | 346° |
| 2026-04-28 21:53 | -41.83906 | -71.15504 | 17763 ft | 351 kts | 345° |
| 2026-04-28 21:54 | -41.81497 | -71.15627 | 17358 ft | 343 kts | 345° |
| 2026-04-28 21:54 | -41.79139 | -71.15747 | 16992 ft | 336 kts | 345° |
| 2026-04-28 21:54 | -41.76837 | -71.15865 | 16573 ft | 326 kts | 345° |
| 2026-04-28 21:54 | -41.74607 | -71.15976 | 16266 ft | 316 kts | 345° |
| 2026-04-28 21:55 | -41.72444 | -71.16084 | 15915 ft | 308 kts | 345° |
| 2026-04-28 21:55 | -41.70256 | -71.16216 | 15620 ft | 323 kts | 344° |
| 2026-04-28 21:55 | -41.67964 | -71.16049 | 15172 ft | 345 kts | 1° |
| 2026-04-28 21:55 | -41.65708 | -71.14761 | 14752 ft | 357 kts | 18° |
| 2026-04-28 21:56 | -41.63611 | -71.13135 | 14335 ft | 343 kts | 19° |
| 2026-04-28 21:56 | -41.61606 | -71.11516 | 14037 ft | 330 kts | 19° |
| 2026-04-28 21:56 | -41.59670 | -71.09952 | 13488 ft | 323 kts | 19° |
| 2026-04-28 21:56 | -41.57752 | -71.08438 | 12909 ft | 319 kts | 19° |
| 2026-04-28 21:57 | -41.55852 | -71.06958 | 12343 ft | 315 kts | 17° |
| 2026-04-28 21:57 | -41.53971 | -71.05506 | 11793 ft | 312 kts | 18° |
| 2026-04-28 21:57 | -41.52113 | -71.04056 | 11269 ft | 308 kts | 18° |
| 2026-04-28 21:57 | -41.50278 | -71.02608 | 10762 ft | 306 kts | 18° |
| 2026-04-28 21:58 | -41.48463 | -71.01177 | 10270 ft | 302 kts | 18° |
| 2026-04-28 21:58 | -41.46658 | -70.99758 | 9730 ft | 301 kts | 18° |
| 2026-04-28 21:58 | -41.44861 | -70.98351 | 9276 ft | 299 kts | 19° |
| 2026-04-28 21:58 | -41.43081 | -70.96953 | 8875 ft | 295 kts | 19° |
| 2026-04-28 21:59 | -41.41327 | -70.95578 | 8413 ft | 291 kts | 19° |
| 2026-04-28 21:59 | -41.39588 | -70.94220 | 8010 ft | 289 kts | 20° |
| 2026-04-28 21:59 | -41.37865 | -70.92872 | 7519 ft | 286 kts | 20° |
| 2026-04-28 22:00 | -41.34411 | -70.90189 | 7319 ft | 290 kts | 20° |
| 2026-04-28 22:00 | -41.32684 | -70.88842 | 7277 ft | 289 kts | 20° |
| 2026-04-28 22:00 | -41.30920 | -70.87538 | 7064 ft | 291 kts | 12° |
| 2026-04-28 22:00 | -41.29035 | -70.87033 | 6823 ft | 265 kts | 348° |
| 2026-04-28 22:01 | -41.27327 | -70.87452 | 6548 ft | 243 kts | 333° |
| 2026-04-28 22:01 | -41.25732 | -70.88139 | 6354 ft | 239 kts | 329° |
| 2026-04-28 22:01 | -41.24428 | -70.89284 | 6301 ft | 216 kts | 303° |
| 2026-04-28 22:01 | -41.23690 | -70.90946 | 6319 ft | 209 kts | 290° |
| 2026-04-28 22:02 | -41.23095 | -70.92713 | 6243 ft | 215 kts | 291° |
| 2026-04-28 22:02 | -41.22467 | -70.94563 | 5971 ft | 222 kts | 291° |
| 2026-04-28 22:02 | -41.21830 | -70.96415 | 5665 ft | 219 kts | 291° |
| 2026-04-28 22:02 | -41.21206 | -70.98214 | 5391 ft | 212 kts | 291° |
| 2026-04-28 22:03 | -41.20593 | -70.99983 | 5117 ft | 212 kts | 291° |
| 2026-04-28 22:03 | -41.19990 | -71.01723 | 4883 ft | 199 kts | 292° |
| 2026-04-28 22:03 | -41.19436 | -71.03321 | 4618 ft | 182 kts | 292° |
| 2026-04-28 22:03 | -41.18938 | -71.04761 | 4359 ft | 163 kts | 293° |
| 2026-04-28 22:04 | -41.18491 | -71.06050 | 4137 ft | 144 kts | 294° |
| 2026-04-28 22:04 | -41.18082 | -71.07230 | 3993 ft | 141 kts | 295° |
| 2026-04-28 22:04 | -41.17669 | -71.08423 | 3793 ft | 142 kts | 295° |
| 2026-04-28 22:04 | -41.17263 | -71.09597 | 3600 ft | 138 kts | 296° |
| 2026-04-28 22:05 | -41.16869 | -71.10733 | 3418 ft | 133 kts | 296° |
| 2026-04-28 22:05 | -41.16486 | -71.11833 | 3232 ft | 129 kts | 297° |
| 2026-04-28 22:05 | -41.16116 | -71.12909 | 3055 ft | 129 kts | 296° |
| 2026-04-28 22:05 | -41.15739 | -71.14032 | 2931 ft | 134 kts | 299° |
| 2026-04-28 22:06 | -41.15348 | -71.15104 | 2764 ft | 120 kts | 299° |
| 2026-04-28 22:06 | -41.15076 | -71.15845 | 2751 ft | 31 kts | 294° |
| 2026-04-28 22:06 | -41.15006 | -71.16068 | 2755 ft | 22 kts | 294° |
| 2026-04-28 22:06 | -41.14952 | -71.16227 | 2753 ft | 15 kts | 294° |
| 2026-04-28 22:07 | -41.14918 | -71.16313 | 2755 ft | 7 kts | 308° |
| 2026-04-28 22:07 | -41.14895 | -71.16330 | 2753 ft | 2 kts | 350° |
| 2026-04-28 22:07 | -41.14854 | -71.16320 | 2752 ft | 8 kts | 23° |
| 2026-04-28 22:07 | -41.14801 | -71.16286 | 2751 ft | 8 kts | 26° |
| 2026-04-28 22:08 | -41.14762 | -71.16251 | 2750 ft | 6 kts | 40° |
| 2026-04-28 22:08 | -41.14748 | -71.16208 | 2749 ft | 4 kts | 81° |
| 2026-04-28 22:08 | -41.14743 | -71.16172 | 2748 ft | 3 kts | 81° |
| 2026-04-28 22:08 | -41.14736 | -71.16150 | 2748 ft | 2 kts | 57° |
| 2026-04-28 22:09 | -41.14725 | -71.16134 | 2748 ft | 2 kts | 53° |
| 2026-04-28 22:09 | -41.14722 | -71.16122 | 2748 ft | 1 kts | 67° |
| 2026-04-28 22:09 | -41.14718 | -71.16112 | 2748 ft | 2 kts | 65° |
| 2026-04-28 22:09 | -41.14717 | -71.16109 | 2748 ft | 0 kts | 65° |